sensor_id;sensor_type;location;lat;lon;timestamp;temperature;humidity
39777;DHT22;25453;48.162;14.510;2022-09-29T00:02:05;13.00;77.60
39777;DHT22;25453;48.162;14.510;2022-09-29T00:04:41;13.00;77.70
39777;DHT22;25453;48.162;14.510;2022-09-29T00:07:08;13.00;77.70
39777;DHT22;25453;48.162;14.510;2022-09-29T00:09:42;13.00;77.40
39777;DHT22;25453;48.162;14.510;2022-09-29T00:12:09;12.90;77.40
39777;DHT22;25453;48.162;14.510;2022-09-29T00:14:43;12.90;77.70
39777;DHT22;25453;48.162;14.510;2022-09-29T00:17:13;12.90;77.60
39777;DHT22;25453;48.162;14.510;2022-09-29T00:19:48;12.90;77.50
39777;DHT22;25453;48.162;14.510;2022-09-29T00:22:18;12.90;77.60
39777;DHT22;25453;48.162;14.510;2022-09-29T00:24:53;12.90;77.50
39777;DHT22;25453;48.162;14.510;2022-09-29T00:27:20;12.90;77.50
39777;DHT22;25453;48.162;14.510;2022-09-29T00:29:54;12.90;77.60
39777;DHT22;25453;48.162;14.510;2022-09-29T00:32:21;12.90;77.40
39777;DHT22;25453;48.162;14.510;2022-09-29T00:34:55;12.90;77.40
39777;DHT22;25453;48.162;14.510;2022-09-29T00:37:23;12.90;77.40
39777;DHT22;25453;48.162;14.510;2022-09-29T00:39:57;12.90;77.30
39777;DHT22;25453;48.162;14.510;2022-09-29T00:42:41;12.90;77.30
39777;DHT22;25453;48.162;14.510;2022-09-29T00:45:20;12.90;77.30
39777;DHT22;25453;48.162;14.510;2022-09-29T00:47:56;12.90;77.30
39777;DHT22;25453;48.162;14.510;2022-09-29T00:50:42;12.90;77.40
39777;DHT22;25453;48.162;14.510;2022-09-29T00:53:11;12.90;77.20
39777;DHT22;25453;48.162;14.510;2022-09-29T01:01:30;12.90;77.20
39777;DHT22;25453;48.162;14.510;2022-09-29T01:04:02;13.00;77.20
39777;DHT22;25453;48.162;14.510;2022-09-29T01:06:53;12.90;77.10
39777;DHT22;25453;48.162;14.510;2022-09-29T01:09:28;12.90;77.10
39777;DHT22;25453;48.162;14.510;2022-09-29T01:12:03;12.90;77.10
39777;DHT22;25453;48.162;14.510;2022-09-29T01:14:32;12.80;77.30
39777;DHT22;25453;48.162;14.510;2022-09-29T01:17:09;12.80;77.30
39777;DHT22;25453;48.162;14.510;2022-09-29T01:22:53;12.80;77.50
39777;DHT22;25453;48.162;14.510;2022-09-29T01:31:37;12.80;77.50
39777;DHT22;25453;48.162;14.510;2022-09-29T01:34:55;12.80;77.40
39777;DHT22;25453;48.162;14.510;2022-09-29T01:40:53;12.80;77.60
39777;DHT22;25453;48.162;14.510;2022-09-29T01:43:57;12.90;77.70
39777;DHT22;25453;48.162;14.510;2022-09-29T01:46:32;12.90;77.60
39777;DHT22;25453;48.162;14.510;2022-09-29T01:49:11;12.90;77.60
39777;DHT22;25453;48.162;14.510;2022-09-29T01:54:21;12.90;77.50
39777;DHT22;25453;48.162;14.510;2022-09-29T01:57:03;12.80;77.40
39777;DHT22;25453;48.162;14.510;2022-09-29T01:59:49;12.80;77.60
39777;DHT22;25453;48.162;14.510;2022-09-29T02:05:46;12.80;77.70
39777;DHT22;25453;48.162;14.510;2022-09-29T02:08:35;12.80;77.70
39777;DHT22;25453;48.162;14.510;2022-09-29T02:11:12;12.70;77.60
39777;DHT22;25453;48.162;14.510;2022-09-29T02:13:44;12.70;77.60
39777;DHT22;25453;48.162;14.510;2022-09-29T02:16:28;12.70;77.50
39777;DHT22;25453;48.162;14.510;2022-09-29T02:19:06;12.70;77.60
39777;DHT22;25453;48.162;14.510;2022-09-29T02:21:41;12.60;77.50
39777;DHT22;25453;48.162;14.510;2022-09-29T02:24:13;12.60;77.50
39777;DHT22;25453;48.162;14.510;2022-09-29T02:26:42;12.60;77.50
39777;DHT22;25453;48.162;14.510;2022-09-29T02:29:18;12.60;77.60
39777;DHT22;25453;48.162;14.510;2022-09-29T02:31:53;12.60;77.60
39777;DHT22;25453;48.162;14.510;2022-09-29T02:34:22;12.60;77.50
39777;DHT22;25453;48.162;14.510;2022-09-29T02:37:06;12.60;77.50
39777;DHT22;25453;48.162;14.510;2022-09-29T02:51:28;12.60;77.50
39777;DHT22;25453;48.162;14.510;2022-09-29T02:59:39;12.60;77.50
39777;DHT22;25453;48.162;14.510;2022-09-29T03:02:22;12.60;77.60
39777;DHT22;25453;48.162;14.510;2022-09-29T03:04:50;12.60;77.50
39777;DHT22;25453;48.162;14.510;2022-09-29T03:07:26;12.60;77.50
39777;DHT22;25453;48.162;14.510;2022-09-29T03:09:53;12.50;77.60
39777;DHT22;25453;48.162;14.510;2022-09-29T03:12:28;12.50;77.60
39777;DHT22;25453;48.162;14.510;2022-09-29T03:14:56;12.50;77.70
39777;DHT22;25453;48.162;14.510;2022-09-29T03:17:30;12.50;77.60
39777;DHT22;25453;48.162;14.510;2022-09-29T03:20:05;12.50;77.60
39777;DHT22;25453;48.162;14.510;2022-09-29T03:22:33;12.50;77.60
39777;DHT22;25453;48.162;14.510;2022-09-29T03:25:07;12.50;77.60
39777;DHT22;25453;48.162;14.510;2022-09-29T03:27:42;12.50;77.70
39777;DHT22;25453;48.162;14.510;2022-09-29T03:30:11;12.50;77.70
39777;DHT22;25453;48.162;14.510;2022-09-29T03:32:39;12.50;77.80
39777;DHT22;25453;48.162;14.510;2022-09-29T03:35:13;12.50;77.80
39777;DHT22;25453;48.162;14.510;2022-09-29T03:37:47;12.50;78.00
39777;DHT22;25453;48.162;14.510;2022-09-29T03:40:21;12.50;77.80
39777;DHT22;25453;48.162;14.510;2022-09-29T03:43:09;12.50;77.70
39777;DHT22;25453;48.162;14.510;2022-09-29T03:45:37;12.50;77.70
39777;DHT22;25453;48.162;14.510;2022-09-29T03:48:11;12.50;77.80
39777;DHT22;25453;48.162;14.510;2022-09-29T03:50:51;12.50;77.80
39777;DHT22;25453;48.162;14.510;2022-09-29T03:53:19;12.50;77.80
39777;DHT22;25453;48.162;14.510;2022-09-29T03:55:53;12.50;77.70
39777;DHT22;25453;48.162;14.510;2022-09-29T03:58:20;12.40;77.70
39777;DHT22;25453;48.162;14.510;2022-09-29T04:00:54;12.50;77.70
39777;DHT22;25453;48.162;14.510;2022-09-29T04:03:22;12.50;77.60
39777;DHT22;25453;48.162;14.510;2022-09-29T04:05:56;12.40;77.60
39777;DHT22;25453;48.162;14.510;2022-09-29T04:08:23;12.50;77.60
39777;DHT22;25453;48.162;14.510;2022-09-29T04:10:57;12.40;77.50
39777;DHT22;25453;48.162;14.510;2022-09-29T04:13:24;12.40;77.50
39777;DHT22;25453;48.162;14.510;2022-09-29T04:15:59;12.40;77.40
39777;DHT22;25453;48.162;14.510;2022-09-29T04:18:27;12.40;77.40
39777;DHT22;25453;48.162;14.510;2022-09-29T04:20:55;12.40;77.40
39777;DHT22;25453;48.162;14.510;2022-09-29T04:23:34;12.40;77.40
39777;DHT22;25453;48.162;14.510;2022-09-29T04:26:02;12.40;77.40
39777;DHT22;25453;48.162;14.510;2022-09-29T04:28:37;12.40;77.50
39777;DHT22;25453;48.162;14.510;2022-09-29T04:31:06;12.40;77.60
39777;DHT22;25453;48.162;14.510;2022-09-29T04:33:34;12.40;77.40
39777;DHT22;25453;48.162;14.510;2022-09-29T04:36:07;12.40;77.30
39777;DHT22;25453;48.162;14.510;2022-09-29T04:38:34;12.40;77.30
39777;DHT22;25453;48.162;14.510;2022-09-29T04:41:08;12.30;77.30
39777;DHT22;25453;48.162;14.510;2022-09-29T04:43:49;12.30;77.40
39777;DHT22;25453;48.162;14.510;2022-09-29T04:46:22;12.20;77.30
39777;DHT22;25453;48.162;14.510;2022-09-29T04:48:49;12.20;77.30
39777;DHT22;25453;48.162;14.510;2022-09-29T04:51:23;12.20;77.40
39777;DHT22;25453;48.162;14.510;2022-09-29T04:53:50;12.20;77.30
39777;DHT22;25453;48.162;14.510;2022-09-29T04:56:25;12.10;77.30
39777;DHT22;25453;48.162;14.510;2022-09-29T04:58:58;12.10;77.40
39777;DHT22;25453;48.162;14.510;2022-09-29T05:01:31;12.10;77.40
39777;DHT22;25453;48.162;14.510;2022-09-29T05:04:07;12.10;77.40
39777;DHT22;25453;48.162;14.510;2022-09-29T05:06:43;12.10;77.50
39777;DHT22;25453;48.162;14.510;2022-09-29T05:09:10;12.10;77.50
39777;DHT22;25453;48.162;14.510;2022-09-29T05:11:37;12.10;77.50
39777;DHT22;25453;48.162;14.510;2022-09-29T05:14:12;12.10;77.40
39777;DHT22;25453;48.162;14.510;2022-09-29T05:16:39;12.00;77.30
39777;DHT22;25453;48.162;14.510;2022-09-29T05:19:13;12.00;77.50
39777;DHT22;25453;48.162;14.510;2022-09-29T05:21:42;12.00;77.60
39777;DHT22;25453;48.162;14.510;2022-09-29T05:24:15;12.10;77.70
39777;DHT22;25453;48.162;14.510;2022-09-29T05:26:43;12.10;77.90
39777;DHT22;25453;48.162;14.510;2022-09-29T05:29:21;12.10;78.00
39777;DHT22;25453;48.162;14.510;2022-09-29T05:31:50;12.10;78.00
39777;DHT22;25453;48.162;14.510;2022-09-29T05:34:24;12.10;77.80
39777;DHT22;25453;48.162;14.510;2022-09-29T05:36:52;12.10;78.00
39777;DHT22;25453;48.162;14.510;2022-09-29T05:39:26;12.10;77.90
39777;DHT22;25453;48.162;14.510;2022-09-29T05:41:53;12.10;78.00
39777;DHT22;25453;48.162;14.510;2022-09-29T05:44:34;12.10;77.90
39777;DHT22;25453;48.162;14.510;2022-09-29T05:47:01;12.10;78.00
39777;DHT22;25453;48.162;14.510;2022-09-29T05:49:35;12.10;78.00
39777;DHT22;25453;48.162;14.510;2022-09-29T05:52:09;12.10;77.90
39777;DHT22;25453;48.162;14.510;2022-09-29T05:54:38;12.20;77.90
39777;DHT22;25453;48.162;14.510;2022-09-29T05:57:12;12.20;77.90
39777;DHT22;25453;48.162;14.510;2022-09-29T05:59:39;12.20;77.90
39777;DHT22;25453;48.162;14.510;2022-09-29T06:02:13;12.20;77.90
39777;DHT22;25453;48.162;14.510;2022-09-29T06:04:42;12.20;77.90
39777;DHT22;25453;48.162;14.510;2022-09-29T06:07:20;12.20;78.00
39777;DHT22;25453;48.162;14.510;2022-09-29T06:09:47;12.20;78.20
39777;DHT22;25453;48.162;14.510;2022-09-29T06:12:21;12.20;78.10
39777;DHT22;25453;48.162;14.510;2022-09-29T06:14:48;12.30;78.10
39777;DHT22;25453;48.162;14.510;2022-09-29T06:17:22;12.30;78.10
39777;DHT22;25453;48.162;14.510;2022-09-29T06:19:49;12.30;78.00
39777;DHT22;25453;48.162;14.510;2022-09-29T06:22:25;12.40;77.90
39777;DHT22;25453;48.162;14.510;2022-09-29T06:24:53;12.40;78.00
39777;DHT22;25453;48.162;14.510;2022-09-29T06:27:27;12.40;77.90
39777;DHT22;25453;48.162;14.510;2022-09-29T06:29:55;12.50;78.10
39777;DHT22;25453;48.162;14.510;2022-09-29T06:32:28;12.50;78.10
39777;DHT22;25453;48.162;14.510;2022-09-29T06:35:02;12.50;78.00
39777;DHT22;25453;48.162;14.510;2022-09-29T06:37:48;12.60;78.00
39777;DHT22;25453;48.162;14.510;2022-09-29T06:40:29;12.60;77.80
39777;DHT22;25453;48.162;14.510;2022-09-29T06:43:10;12.60;77.90
39777;DHT22;25453;48.162;14.510;2022-09-29T06:45:45;12.60;77.80
39777;DHT22;25453;48.162;14.510;2022-09-29T06:48:12;12.60;77.70
39777;DHT22;25453;48.162;14.510;2022-09-29T06:50:39;12.60;77.80
39777;DHT22;25453;48.162;14.510;2022-09-29T06:53:19;12.60;77.70
39777;DHT22;25453;48.162;14.510;2022-09-29T06:56:03;12.60;77.70
39777;DHT22;25453;48.162;14.510;2022-09-29T06:58:30;12.60;77.70
39777;DHT22;25453;48.162;14.510;2022-09-29T07:01:05;12.60;77.70
39777;DHT22;25453;48.162;14.510;2022-09-29T07:03:33;12.60;77.80
39777;DHT22;25453;48.162;14.510;2022-09-29T07:06:05;12.60;77.90
39777;DHT22;25453;48.162;14.510;2022-09-29T07:08:47;12.60;77.80
39777;DHT22;25453;48.162;14.510;2022-09-29T07:11:14;12.70;78.00
39777;DHT22;25453;48.162;14.510;2022-09-29T07:13:53;12.70;77.90
39777;DHT22;25453;48.162;14.510;2022-09-29T07:16:27;12.70;77.70
39777;DHT22;25453;48.162;14.510;2022-09-29T07:19:01;12.60;77.60
39777;DHT22;25453;48.162;14.510;2022-09-29T07:21:29;12.60;77.80
39777;DHT22;25453;48.162;14.510;2022-09-29T07:24:04;12.70;78.00
39777;DHT22;25453;48.162;14.510;2022-09-29T07:26:32;12.70;78.10
39777;DHT22;25453;48.162;14.510;2022-09-29T07:29:05;12.80;78.00
39777;DHT22;25453;48.162;14.510;2022-09-29T07:31:38;12.90;77.70
39777;DHT22;25453;48.162;14.510;2022-09-29T07:34:19;12.90;77.60
39777;DHT22;25453;48.162;14.510;2022-09-29T07:36:46;13.00;77.50
39777;DHT22;25453;48.162;14.510;2022-09-29T07:39:20;13.00;77.40
39777;DHT22;25453;48.162;14.510;2022-09-29T07:41:54;13.10;77.40
39777;DHT22;25453;48.162;14.510;2022-09-29T07:44:35;13.10;77.40
39777;DHT22;25453;48.162;14.510;2022-09-29T07:47:18;13.20;77.20
39777;DHT22;25453;48.162;14.510;2022-09-29T07:49:46;13.30;77.10
39777;DHT22;25453;48.162;14.510;2022-09-29T07:52:19;13.30;77.00
39777;DHT22;25453;48.162;14.510;2022-09-29T07:54:53;13.40;76.90
39777;DHT22;25453;48.162;14.510;2022-09-29T07:57:20;13.50;76.90
39777;DHT22;25453;48.162;14.510;2022-09-29T07:59:55;13.60;76.90
39777;DHT22;25453;48.162;14.510;2022-09-29T08:02:24;13.70;76.80
39777;DHT22;25453;48.162;14.510;2022-09-29T08:04:52;13.70;76.30
39777;DHT22;25453;48.162;14.510;2022-09-29T08:07:33;13.80;75.90
39777;DHT22;25453;48.162;14.510;2022-09-29T08:10:07;13.80;75.70
39777;DHT22;25453;48.162;14.510;2022-09-29T08:12:43;13.80;75.60
39777;DHT22;25453;48.162;14.510;2022-09-29T08:15:19;13.80;75.60
39777;DHT22;25453;48.162;14.510;2022-09-29T08:17:47;13.90;75.60
39777;DHT22;25453;48.162;14.510;2022-09-29T08:20:22;14.00;75.90
39777;DHT22;25453;48.162;14.510;2022-09-29T08:22:50;14.20;76.10
39777;DHT22;25453;48.162;14.510;2022-09-29T08:25:23;14.40;76.10
39777;DHT22;25453;48.162;14.510;2022-09-29T08:27:53;14.50;75.40
39777;DHT22;25453;48.162;14.510;2022-09-29T08:30:28;14.60;74.70
39777;DHT22;25453;48.162;14.510;2022-09-29T08:33:02;14.60;74.60
39777;DHT22;25453;48.162;14.510;2022-09-29T08:35:30;14.60;74.30
39777;DHT22;25453;48.162;14.510;2022-09-29T08:38:04;14.60;74.20
39777;DHT22;25453;48.162;14.510;2022-09-29T08:40:32;14.60;74.40
39777;DHT22;25453;48.162;14.510;2022-09-29T08:46:33;14.90;74.40
39777;DHT22;25453;48.162;14.510;2022-09-29T08:49:56;15.00;73.80
39777;DHT22;25453;48.162;14.510;2022-09-29T08:52:25;15.10;73.30
39777;DHT22;25453;48.162;14.510;2022-09-29T08:57:58;15.30;73.30
39777;DHT22;25453;48.162;14.510;2022-09-29T09:00:38;15.30;72.60
39777;DHT22;25453;48.162;14.510;2022-09-29T09:20:53;16.50;70.20
39777;DHT22;25453;48.162;14.510;2022-09-29T09:23:22;16.60;70.00
39777;DHT22;25453;48.162;14.510;2022-09-29T09:26:00;16.70;69.60
39777;DHT22;25453;48.162;14.510;2022-09-29T09:28:42;16.80;68.90
39777;DHT22;25453;48.162;14.510;2022-09-29T09:37:35;16.70;68.00
39777;DHT22;25453;48.162;14.510;2022-09-29T09:40:27;16.70;67.40
39777;DHT22;25453;48.162;14.510;2022-09-29T09:43:16;16.50;67.20
39777;DHT22;25453;48.162;14.510;2022-09-29T09:45:59;16.40;67.30
39777;DHT22;25453;48.162;14.510;2022-09-29T09:48:40;16.50;67.70
39777;DHT22;25453;48.162;14.510;2022-09-29T09:52:42;16.50;67.30
39777;DHT22;25453;48.162;14.510;2022-09-29T09:54:45;16.60;67.00
39777;DHT22;25453;48.162;14.510;2022-09-29T09:57:25;16.50;66.30
39777;DHT22;25453;48.162;14.510;2022-09-29T10:02:50;16.40;66.80
39777;DHT22;25453;48.162;14.510;2022-09-29T10:05:24;16.50;66.50
39777;DHT22;25453;48.162;14.510;2022-09-29T10:07:59;16.60;67.50
39777;DHT22;25453;48.162;14.510;2022-09-29T10:10:33;16.90;68.00
39777;DHT22;25453;48.162;14.510;2022-09-29T10:13:28;17.20;66.90
39777;DHT22;25453;48.162;14.510;2022-09-29T10:16:16;17.50;66.50
39777;DHT22;25453;48.162;14.510;2022-09-29T10:18:52;17.80;66.00
39777;DHT22;25453;48.162;14.510;2022-09-29T10:21:40;18.00;65.60
39777;DHT22;25453;48.162;14.510;2022-09-29T10:24:28;18.20;64.90
39777;DHT22;25453;48.162;14.510;2022-09-29T10:27:00;18.40;64.30
39777;DHT22;25453;48.162;14.510;2022-09-29T10:29:37;18.60;63.50
39777;DHT22;25453;48.162;14.510;2022-09-29T10:32:08;18.70;62.60
39777;DHT22;25453;48.162;14.510;2022-09-29T10:35:00;18.90;62.30
39777;DHT22;25453;48.162;14.510;2022-09-29T10:37:42;19.10;61.60
39777;DHT22;25453;48.162;14.510;2022-09-29T10:40:19;19.20;60.90
39777;DHT22;25453;48.162;14.510;2022-09-29T10:42:57;19.40;60.40
39777;DHT22;25453;48.162;14.510;2022-09-29T10:45:46;19.60;59.30
39777;DHT22;25453;48.162;14.510;2022-09-29T10:48:15;19.70;57.00
39777;DHT22;25453;48.162;14.510;2022-09-29T10:51:23;19.70;55.10
39777;DHT22;25453;48.162;14.510;2022-09-29T10:53:43;19.70;55.60
39777;DHT22;25453;48.162;14.510;2022-09-29T10:56:19;19.70;55.10
39777;DHT22;25453;48.162;14.510;2022-09-29T10:58:59;19.70;54.90
39777;DHT22;25453;48.162;14.510;2022-09-29T11:01:34;19.70;54.80
39777;DHT22;25453;48.162;14.510;2022-09-29T11:07:09;19.80;54.30
39777;DHT22;25453;48.162;14.510;2022-09-29T11:09:43;19.70;53.80
39777;DHT22;25453;48.162;14.510;2022-09-29T11:15:25;19.20;53.80
39777;DHT22;25453;48.162;14.510;2022-09-29T11:17:59;19.00;54.20
39777;DHT22;25453;48.162;14.510;2022-09-29T11:20:34;18.80;54.60
39777;DHT22;25453;48.162;14.510;2022-09-29T11:23:28;18.80;55.40
39777;DHT22;25453;48.162;14.510;2022-09-29T11:47:20;19.70;54.60
39777;DHT22;25453;48.162;14.510;2022-09-29T11:55:37;19.80;53.60
39777;DHT22;25453;48.162;14.510;2022-09-29T12:04:03;19.90;54.30
39777;DHT22;25453;48.162;14.510;2022-09-29T12:09:33;20.20;54.10
39777;DHT22;25453;48.162;14.510;2022-09-29T12:17:44;20.60;53.10
39777;DHT22;25453;48.162;14.510;2022-09-29T12:20:25;20.70;52.40
39777;DHT22;25453;48.162;14.510;2022-09-29T12:23:02;20.70;51.50
39777;DHT22;25453;48.162;14.510;2022-09-29T12:25:38;20.70;51.40
39777;DHT22;25453;48.162;14.510;2022-09-29T12:28:21;20.70;50.90
39777;DHT22;25453;48.162;14.510;2022-09-29T12:30:58;20.70;50.60
39777;DHT22;25453;48.162;14.510;2022-09-29T12:36:39;20.50;50.30
39777;DHT22;25453;48.162;14.510;2022-09-29T12:45:26;19.70;49.80
39777;DHT22;25453;48.162;14.510;2022-09-29T12:51:16;19.20;50.10
39777;DHT22;25453;48.162;14.510;2022-09-29T13:00:03;18.80;51.30
39777;DHT22;25453;48.162;14.510;2022-09-29T13:05:59;18.70;51.90
39777;DHT22;25453;48.162;14.510;2022-09-29T13:28:40;17.80;53.00
39777;DHT22;25453;48.162;14.510;2022-09-29T13:31:24;17.70;53.20
39777;DHT22;25453;48.162;14.510;2022-09-29T13:34:01;17.60;53.40
39777;DHT22;25453;48.162;14.510;2022-09-29T13:36:38;17.60;53.60
39777;DHT22;25453;48.162;14.510;2022-09-29T13:39:24;17.50;53.30
39777;DHT22;25453;48.162;14.510;2022-09-29T13:47:59;17.40;54.10
39777;DHT22;25453;48.162;14.510;2022-09-29T13:50:54;17.30;54.20
39777;DHT22;25453;48.162;14.510;2022-09-29T13:53:35;17.30;54.60
39777;DHT22;25453;48.162;14.510;2022-09-29T13:56:16;17.20;54.80
39777;DHT22;25453;48.162;14.510;2022-09-29T14:01:34;17.10;55.10
39777;DHT22;25453;48.162;14.510;2022-09-29T14:05:01;17.00;55.30
39777;DHT22;25453;48.162;14.510;2022-09-29T14:07:46;16.90;55.60
39777;DHT22;25453;48.162;14.510;2022-09-29T14:10:38;16.90;55.70
39777;DHT22;25453;48.162;14.510;2022-09-29T14:13:13;16.80;55.70
39777;DHT22;25453;48.162;14.510;2022-09-29T14:18:55;16.70;55.80
39777;DHT22;25453;48.162;14.510;2022-09-29T14:21:57;16.60;56.10
39777;DHT22;25453;48.162;14.510;2022-09-29T14:30:10;16.50;56.50
39777;DHT22;25453;48.162;14.510;2022-09-29T14:35:35;16.40;57.00
39777;DHT22;25453;48.162;14.510;2022-09-29T14:43:52;16.40;57.70
39777;DHT22;25453;48.162;14.510;2022-09-29T15:01:28;16.20;58.80
39777;DHT22;25453;48.162;14.510;2022-09-29T15:04:13;16.20;59.00
39777;DHT22;25453;48.162;14.510;2022-09-29T15:06:50;16.20;59.30
39777;DHT22;25453;48.162;14.510;2022-09-29T15:09:23;16.20;59.40
39777;DHT22;25453;48.162;14.510;2022-09-29T15:11:57;16.30;59.80
39777;DHT22;25453;48.162;14.510;2022-09-29T15:14:33;16.20;60.10
39777;DHT22;25453;48.162;14.510;2022-09-29T15:17:27;16.20;60.50
39777;DHT22;25453;48.162;14.510;2022-09-29T15:22:44;16.20;60.60
39777;DHT22;25453;48.162;14.510;2022-09-29T15:25:37;16.10;60.70
39777;DHT22;25453;48.162;14.510;2022-09-29T15:28:19;16.10;61.10
39777;DHT22;25453;48.162;14.510;2022-09-29T15:30:50;16.00;61.20
39777;DHT22;25453;48.162;14.510;2022-09-29T15:33:39;16.00;61.40
39777;DHT22;25453;48.162;14.510;2022-09-29T15:36:22;16.00;61.60
39777;DHT22;25453;48.162;14.510;2022-09-29T15:42:02;15.90;61.80
39777;DHT22;25453;48.162;14.510;2022-09-29T15:44:45;15.90;62.00
39777;DHT22;25453;48.162;14.510;2022-09-29T15:47:27;15.80;62.20
39777;DHT22;25453;48.162;14.510;2022-09-29T15:50:20;15.80;62.40
39777;DHT22;25453;48.162;14.510;2022-09-29T15:52:54;15.70;62.50
39777;DHT22;25453;48.162;14.510;2022-09-29T15:55:23;15.60;62.50
39777;DHT22;25453;48.162;14.510;2022-09-29T15:57:58;15.60;62.60
39777;DHT22;25453;48.162;14.510;2022-09-29T16:05:39;15.50;62.80
39777;DHT22;25453;48.162;14.510;2022-09-29T16:08:20;15.50;62.90
39777;DHT22;25453;48.162;14.510;2022-09-29T16:10:58;15.50;63.10
39777;DHT22;25453;48.162;14.510;2022-09-29T16:13:35;15.50;63.10
39777;DHT22;25453;48.162;14.510;2022-09-29T16:16:11;15.50;63.10
39777;DHT22;25453;48.162;14.510;2022-09-29T16:18:45;15.50;63.20
39777;DHT22;25453;48.162;14.510;2022-09-29T16:21:24;15.50;63.10
39777;DHT22;25453;48.162;14.510;2022-09-29T16:24:14;15.50;63.10
39777;DHT22;25453;48.162;14.510;2022-09-29T16:26:49;15.50;63.10
39777;DHT22;25453;48.162;14.510;2022-09-29T16:29:30;15.50;63.10
39777;DHT22;25453;48.162;14.510;2022-09-29T16:32:41;15.50;63.00
39777;DHT22;25453;48.162;14.510;2022-09-29T16:35:55;15.50;63.10
39777;DHT22;25453;48.162;14.510;2022-09-29T16:38:37;15.50;63.20
39777;DHT22;25453;48.162;14.510;2022-09-29T16:41:36;15.50;63.30
39777;DHT22;25453;48.162;14.510;2022-09-29T16:44:23;15.60;63.30
39777;DHT22;25453;48.162;14.510;2022-09-29T16:47:24;15.60;63.40
39777;DHT22;25453;48.162;14.510;2022-09-29T16:50:03;15.60;63.30
39777;DHT22;25453;48.162;14.510;2022-09-29T16:58:02;15.60;63.50
39777;DHT22;25453;48.162;14.510;2022-09-29T17:00:38;15.60;63.50
39777;DHT22;25453;48.162;14.510;2022-09-29T17:03:13;15.70;63.40
39777;DHT22;25453;48.162;14.510;2022-09-29T17:05:48;15.60;63.30
39777;DHT22;25453;48.162;14.510;2022-09-29T17:08:27;15.60;63.40
39777;DHT22;25453;48.162;14.510;2022-09-29T17:11:02;15.60;63.50
39777;DHT22;25453;48.162;14.510;2022-09-29T17:13:33;15.60;63.60
39777;DHT22;25453;48.162;14.510;2022-09-29T17:16:11;15.60;63.70
39777;DHT22;25453;48.162;14.510;2022-09-29T17:18:52;15.60;63.70
39777;DHT22;25453;48.162;14.510;2022-09-29T17:21:26;15.60;63.70
39777;DHT22;25453;48.162;14.510;2022-09-29T17:24:02;15.60;63.80
39777;DHT22;25453;48.162;14.510;2022-09-29T17:26:42;15.60;63.80
39777;DHT22;25453;48.162;14.510;2022-09-29T17:29:34;15.60;63.80
39777;DHT22;25453;48.162;14.510;2022-09-29T17:32:12;15.60;63.80
39777;DHT22;25453;48.162;14.510;2022-09-29T17:34:41;15.60;63.80
39777;DHT22;25453;48.162;14.510;2022-09-29T17:37:14;15.60;64.00
39777;DHT22;25453;48.162;14.510;2022-09-29T17:39:45;15.60;64.10
39777;DHT22;25453;48.162;14.510;2022-09-29T17:42:19;15.60;64.10
39777;DHT22;25453;48.162;14.510;2022-09-29T17:44:54;15.60;64.20
39777;DHT22;25453;48.162;14.510;2022-09-29T17:47:27;15.60;64.10
39777;DHT22;25453;48.162;14.510;2022-09-29T17:50:16;15.60;64.10
39777;DHT22;25453;48.162;14.510;2022-09-29T17:52:52;15.60;64.20
39777;DHT22;25453;48.162;14.510;2022-09-29T17:55:20;15.60;64.30
39777;DHT22;25453;48.162;14.510;2022-09-29T17:57:55;15.60;64.30
39777;DHT22;25453;48.162;14.510;2022-09-29T18:00:32;15.60;64.50
39777;DHT22;25453;48.162;14.510;2022-09-29T18:03:11;15.60;64.60
39777;DHT22;25453;48.162;14.510;2022-09-29T18:05:47;15.50;64.70
39777;DHT22;25453;48.162;14.510;2022-09-29T18:08:23;15.50;64.80
39777;DHT22;25453;48.162;14.510;2022-09-29T18:11:00;15.50;64.90
39777;DHT22;25453;48.162;14.510;2022-09-29T18:13:34;15.50;65.00
39777;DHT22;25453;48.162;14.510;2022-09-29T18:16:14;15.60;65.00
39777;DHT22;25453;48.162;14.510;2022-09-29T18:18:43;15.50;65.00
39777;DHT22;25453;48.162;14.510;2022-09-29T18:21:22;15.50;65.00
39777;DHT22;25453;48.162;14.510;2022-09-29T18:23:50;15.50;65.00
39777;DHT22;25453;48.162;14.510;2022-09-29T18:26:23;15.50;65.00
39777;DHT22;25453;48.162;14.510;2022-09-29T18:28:52;15.50;65.00
39777;DHT22;25453;48.162;14.510;2022-09-29T18:31:28;15.50;65.00
39777;DHT22;25453;48.162;14.510;2022-09-29T18:33:55;15.50;65.10
39777;DHT22;25453;48.162;14.510;2022-09-29T18:36:29;15.50;65.20
39777;DHT22;25453;48.162;14.510;2022-09-29T18:38:57;15.50;65.20
39777;DHT22;25453;48.162;14.510;2022-09-29T18:41:37;15.50;65.20
39777;DHT22;25453;48.162;14.510;2022-09-29T18:44:18;15.50;65.40
39777;DHT22;25453;48.162;14.510;2022-09-29T18:46:49;15.50;65.40
39777;DHT22;25453;48.162;14.510;2022-09-29T18:49:23;15.50;65.50
39777;DHT22;25453;48.162;14.510;2022-09-29T18:51:50;15.50;65.50
39777;DHT22;25453;48.162;14.510;2022-09-29T18:54:25;15.50;65.60
39777;DHT22;25453;48.162;14.510;2022-09-29T18:56:56;15.40;65.70
39777;DHT22;25453;48.162;14.510;2022-09-29T18:59:43;15.40;65.70
39777;DHT22;25453;48.162;14.510;2022-09-29T19:02:12;15.40;65.80
39777;DHT22;25453;48.162;14.510;2022-09-29T19:04:45;15.40;65.90
39777;DHT22;25453;48.162;14.510;2022-09-29T19:07:20;15.40;66.10
39777;DHT22;25453;48.162;14.510;2022-09-29T19:09:48;15.40;66.20
39777;DHT22;25453;48.162;14.510;2022-09-29T19:12:22;15.40;66.30
39777;DHT22;25453;48.162;14.510;2022-09-29T19:14:53;15.40;66.50
39777;DHT22;25453;48.162;14.510;2022-09-29T19:17:27;15.40;66.80
39777;DHT22;25453;48.162;14.510;2022-09-29T19:19:57;15.30;67.00
39777;DHT22;25453;48.162;14.510;2022-09-29T19:22:32;15.30;67.10
39777;DHT22;25453;48.162;14.510;2022-09-29T19:25:05;15.30;67.30
39777;DHT22;25453;48.162;14.510;2022-09-29T19:27:40;15.30;67.40
39777;DHT22;25453;48.162;14.510;2022-09-29T19:30:14;15.30;67.60
39777;DHT22;25453;48.162;14.510;2022-09-29T19:32:49;15.30;67.70
39777;DHT22;25453;48.162;14.510;2022-09-29T19:35:19;15.30;67.80
39777;DHT22;25453;48.162;14.510;2022-09-29T19:37:54;15.30;67.90
39777;DHT22;25453;48.162;14.510;2022-09-29T19:40:26;15.30;68.10
39777;DHT22;25453;48.162;14.510;2022-09-29T19:43:07;15.30;68.20
39777;DHT22;25453;48.162;14.510;2022-09-29T19:45:43;15.30;68.20
39777;DHT22;25453;48.162;14.510;2022-09-29T19:48:21;15.30;68.40
39777;DHT22;25453;48.162;14.510;2022-09-29T19:50:57;15.30;68.50
39777;DHT22;25453;48.162;14.510;2022-09-29T19:53:44;15.30;68.60